Time;durP1;ratioP1;P1;durP2;ratioP2;P2;SDS_P1;SDS_P2;PMS_P1;PMS_P2;Temp;Humidity;BMP_temperature;BMP_pressure;BME280_temperature;BME280_humidity;BME280_pressure;Samples;Min_cycle;Max_cycle;Signal;HPM_P1;HPM_P2
2023/02/28 00:01:59;;;;;;;17.95;7.32;;;;;;;-1.34;100.00;103009.91;5227223;28;20029;-74
2023/02/28 00:04:29;;;;;;;16.13;7.55;;;;;;;-1.35;100.00;103011.69;5218259;28;20393;-74
2023/02/28 00:07:00;;;;;;;16.38;7.43;;;;;;;-1.36;100.00;103009.06;5226393;28;20036;-74
2023/02/28 00:09:30;;;;;;;19.50;8.18;;;;;;;-1.40;100.00;103010.94;5209155;28;20100;-74
2023/02/28 00:12:10;;;;;;;23.88;7.80;;;;;;;-1.42;100.00;103012.72;5225786;28;20142;-74
2023/02/28 00:14:40;;;;;;;14.18;8.20;;;;;;;-1.45;100.00;102999.66;5210351;28;20027;-74
2023/02/28 00:17:11;;;;;;;18.15;7.97;;;;;;;-1.45;100.00;103002.28;5225950;28;20477;-74
2023/02/28 00:19:41;;;;;;;13.32;7.22;;;;;;;-1.47;100.00;102993.53;5226792;28;20032;-74
2023/02/28 00:22:12;;;;;;;19.15;8.25;;;;;;;-1.49;100.00;103000.63;5226496;28;20110;-74
2023/02/28 00:24:42;;;;;;;17.98;8.00;;;;;;;-1.49;100.00;103002.38;5226617;28;20021;-74
2023/02/28 00:27:13;;;;;;;14.88;7.90;;;;;;;-1.52;100.00;102999.81;5225509;28;20029;-74
2023/02/28 00:29:46;;;;;;;17.10;8.40;;;;;;;-1.55;100.00;103006.03;5226435;28;20029;-74
2023/02/28 00:32:18;;;;;;;17.02;8.10;;;;;;;-1.57;100.00;103002.56;5226556;28;20025;-74
2023/02/28 00:34:49;;;;;;;15.45;8.52;;;;;;;-1.59;100.00;102997.34;5226124;28;20021;-74
2023/02/28 00:37:19;;;;;;;16.30;7.95;;;;;;;-1.59;100.00;102999.09;5225987;28;20032;-74
2023/02/28 00:39:50;;;;;;;16.98;7.88;;;;;;;-1.59;100.00;102992.06;5225706;28;20036;-74
2023/02/28 00:42:20;;;;;;;17.25;8.27;;;;;;;-1.60;100.00;102998.25;5192037;28;20316;-74
2023/02/28 00:44:51;;;;;;;17.40;8.32;;;;;;;-1.61;100.00;103003.50;5212427;28;20069;-74
2023/02/28 00:47:21;;;;;;;15.57;8.80;;;;;;;-1.67;100.00;102999.25;5225826;28;20370;-74
2023/02/28 00:49:52;;;;;;;15.85;8.38;;;;;;;-1.69;100.00;103003.72;5226141;28;20028;-74
2023/02/28 00:52:23;;;;;;;18.13;8.65;;;;;;;-1.68;100.00;103005.44;5225684;28;20028;-74
2023/02/28 00:54:54;;;;;;;19.77;9.18;;;;;;;-1.70;100.00;103009.00;5208131;28;20146;-74
2023/02/28 00:57:24;;;;;;;21.30;9.73;;;;;;;-1.71;100.00;103015.16;5225350;28;20029;-74
2023/02/28 00:59:55;;;;;;;18.33;8.77;;;;;;;-1.73;100.00;103009.94;5225785;28;20021;-74
2023/02/28 01:02:25;;;;;;;20.30;8.88;;;;;;;-1.77;100.00;103018.78;5225625;28;20033;-74
2023/02/28 01:04:56;;;;;;;20.80;10.02;;;;;;;-1.80;100.00;103012.75;5207567;28;20028;-74
2023/02/28 01:07:27;;;;;;;16.00;8.93;;;;;;;-1.82;100.00;103023.28;5208044;28;20045;-74
2023/02/28 01:09:57;;;;;;;18.15;9.15;;;;;;;-1.86;100.00;103026.88;5225948;28;20108;-74
2023/02/28 01:12:28;;;;;;;19.30;8.93;;;;;;;-1.90;100.00;103023.47;5225704;28;20108;-74
2023/02/28 01:14:58;;;;;;;20.58;9.27;;;;;;;-1.90;100.00;103035.75;5225624;28;20029;-74
2023/02/28 01:17:28;;;;;;;18.13;9.02;;;;;;;-1.94;100.00;103027.06;5224547;28;20162;-74
2023/02/28 01:19:59;;;;;;;18.38;9.07;;;;;;;-1.96;100.00;103030.59;5225684;28;20056;-74
2023/02/28 01:22:29;;;;;;;25.30;9.70;;;;;;;-1.99;100.00;103039.44;5225426;28;20078;-74
2023/02/28 01:25:00;;;;;;;20.80;10.15;;;;;;;-2.02;100.00;103030.75;5225296;28;20033;-74
2023/02/28 01:27:30;;;;;;;19.67;9.20;;;;;;;-2.03;100.00;103029.03;5224994;28;20024;-74
2023/02/28 01:30:01;;;;;;;19.27;10.05;;;;;;;-2.05;100.00;103031.69;5225584;28;20033;-74
2023/02/28 01:32:32;;;;;;;21.73;9.55;;;;;;;-2.06;100.00;103029.06;5207700;28;20048;-75
2023/02/28 01:35:03;;;;;;;21.17;9.50;;;;;;;-2.08;100.00;103023.84;5225056;28;20104;-75
2023/02/28 01:37:33;;;;;;;19.83;10.50;;;;;;;-2.09;100.00;103020.34;5224987;28;20051;-74
2023/02/28 01:40:04;;;;;;;23.17;9.65;;;;;;;-2.10;100.00;103020.41;5224709;28;20092;-74
2023/02/28 01:42:35;;;;;;;17.05;9.32;;;;;;;-2.10;100.00;103017.78;5225055;28;20029;-74
2023/02/28 01:45:26;;;;;;;21.42;10.20;;;;;;;-2.11;100.00;103023.91;5211519;28;20027;-75
2023/02/28 01:48:02;;;;;;;22.65;10.40;;;;;;;-2.12;100.00;103016.91;5224546;28;20147;-74
2023/02/28 01:50:39;;;;;;;19.30;10.15;;;;;;;-2.12;100.00;103019.53;5224642;28;20021;-74
2023/02/28 01:53:15;;;;;;;22.35;10.13;;;;;;;-2.14;100.00;103024.84;5224884;28;20025;-75
2023/02/28 01:55:49;;;;;;;23.75;10.02;;;;;;;-2.14;100.00;103010.84;5207018;28;20021;-75
2023/02/28 01:58:20;;;;;;;23.77;10.80;;;;;;;-2.15;100.00;103004.72;5224259;28;20539;-75
2023/02/28 02:00:51;;;;;;;21.70;10.05;;;;;;;-2.16;100.00;103007.34;5206978;28;20029;-74
2023/02/28 02:03:22;;;;;;;25.58;10.75;;;;;;;-2.19;100.00;103007.44;5219539;28;20099;-75
2023/02/28 02:05:52;;;;;;;19.63;10.05;;;;;;;-2.22;100.00;103005.72;5221189;28;20148;-75
2023/02/28 02:08:28;;;;;;;21.20;11.02;;;;;;;-2.23;100.00;103000.50;5224368;28;20100;-75
2023/02/28 02:11:01;;;;;;;25.05;11.27;;;;;;;-2.24;100.00;102997.00;5224708;28;20040;-75
2023/02/28 02:14:02;;;;;;;21.98;11.00;;;;;;;-2.22;100.00;102991.72;5224272;28;20508;-75
2023/02/28 02:16:57;;;;;;;20.17;10.00;;;;;;;-2.22;100.00;102991.72;5224451;28;20382;-74
2023/02/28 02:20:12;;;;;;;27.42;11.25;;;;;;;-2.22;100.00;102991.72;5200699;28;20028;-75
2023/02/28 02:23:20;;;;;;;27.95;11.38;;;;;;;-2.24;100.00;102985.63;5196740;28;20087;-75
2023/02/28 02:26:27;;;;;;;22.52;10.20;;;;;;;-2.27;100.00;102986.53;5211564;28;20082;-75
2023/02/28 02:29:37;;;;;;;27.38;11.25;;;;;;;-2.29;100.00;102990.97;5224397;28;20428;-74
2023/02/28 02:32:28;;;;;;;30.73;10.95;;;;;;;-2.31;100.00;102976.97;5223875;28;20051;-75
2023/02/28 02:35:13;;;;;;;22.85;10.88;;;;;;;-2.34;100.00;102984.94;5205920;28;20086;-75
2023/02/28 02:37:45;;;;;;;30.45;11.73;;;;;;;-2.36;100.00;102987.63;5223920;28;20025;-75
2023/02/28 02:40:19;;;;;;;23.85;10.95;;;;;;;-2.39;100.00;102979.78;5223859;28;20087;-75
2023/02/28 02:42:50;;;;;;;25.73;12.93;;;;;;;-2.44;100.00;102983.41;5223875;28;20456;-75
2023/02/28 02:45:39;;;;;;;24.45;10.98;;;;;;;-2.48;100.00;102979.97;5224134;28;20041;-75
2023/02/28 02:48:15;;;;;;;25.77;12.38;;;;;;;-2.50;100.00;102981.75;5223456;28;20033;-75
2023/02/28 02:50:51;;;;;;;27.63;11.43;;;;;;;-2.50;100.00;102979.13;5224203;28;20053;-75
2023/02/28 02:53:29;;;;;;;25.35;11.52;;;;;;;-2.48;100.00;102979.09;5211376;28;20671;-75
2023/02/28 02:56:03;;;;;;;23.73;10.90;;;;;;;-2.47;100.00;102973.78;5224253;28;20115;-75
2023/02/28 02:58:41;;;;;;;22.77;11.00;;;;;;;-2.47;100.00;102976.41;5223481;28;20025;-75
2023/02/28 03:01:27;;;;;;;25.25;11.32;;;;;;;-2.46;100.00;102978.19;5223988;28;20040;-75
2023/02/28 03:04:01;;;;;;;27.55;10.90;;;;;;;-2.50;100.00;102971.25;5215056;28;20437;-75
2023/02/28 03:06:31;;;;;;;25.60;11.95;;;;;;;-2.51;100.00;102982.66;5223394;28;20090;-75
2023/02/28 03:09:02;;;;;;;25.13;11.23;;;;;;;-2.51;100.00;102980.03;5223872;28;20044;-75
2023/02/28 03:11:36;;;;;;;26.10;11.43;;;;;;;-2.53;100.00;102971.28;5223720;28;20053;-75
2023/02/28 03:14:41;;;;;;;25.73;11.30;;;;;;;-2.55;100.00;102973.09;5223437;28;20047;-75
2023/02/28 03:17:39;;;;;;;28.60;10.93;;;;;;;-2.56;100.00;102973.09;5224899;28;20045;-74
2023/02/28 03:20:35;;;;;;;27.50;11.40;;;;;;;-2.59;100.00;102984.56;5223816;28;20017;-75
2023/02/28 03:23:29;;;;;;;23.42;11.55;;;;;;;-2.60;100.00;102985.47;5224242;28;20028;-75
2023/02/28 03:26:06;;;;;;;24.75;11.02;;;;;;;-2.62;100.00;102984.63;5224064;28;20021;-75
2023/02/28 03:29:12;;;;;;;24.58;11.07;;;;;;;-2.65;100.00;102982.06;5223119;28;20036;-75
2023/02/28 03:31:46;;;;;;;;;;;;;;;-2.66;100.00;102975.06;5224077;28;20025;-75
2023/02/28 03:34:26;;;;;;;23.85;11.10;;;;;;;-2.68;100.00;102977.72;5223642;28;19948;-75
2023/02/28 03:37:03;;;;;;;28.90;12.77;;;;;;;-2.68;100.00;102980.34;5222817;28;20017;-75
2023/02/28 03:39:38;;;;;;;24.23;11.13;;;;;;;-2.65;100.00;102984.69;5223448;28;20017;-75
2023/02/28 03:42:28;;;;;;;24.98;12.77;;;;;;;-2.66;100.00;102986.44;5205986;28;20075;-75
2023/02/28 03:45:17;;;;;;;22.48;11.13;;;;;;;-2.66;100.00;102998.69;5223180;28;20029;-75
2023/02/28 03:47:51;;;;;;;20.70;10.23;;;;;;;-2.68;100.00;102996.09;5226275;28;20064;-75
2023/02/28 03:50:27;;;;;;;25.27;11.57;;;;;;;-2.71;100.00;102988.31;5227465;28;20033;-75
2023/02/28 03:53:29;;;;;;;24.80;12.05;;;;;;;-2.72;100.00;102990.94;5209805;28;20025;-75
2023/02/28 03:56:06;;;;;;;23.52;11.43;;;;;;;-2.73;100.00;102989.22;5227147;28;20029;-75
2023/02/28 03:59:00;;;;;;;24.67;11.32;;;;;;;-2.73;100.00;102987.44;5227074;28;20025;-74
2023/02/28 04:01:36;;;;;;;22.38;11.05;;;;;;;-2.72;100.00;102990.94;5197111;28;20025;-75
2023/02/28 04:04:08;;;;;;;27.25;11.20;;;;;;;-2.74;100.00;102984.84;5217829;28;20068;-75
2023/02/28 04:06:39;;;;;;;29.38;11.82;;;;;;;-2.76;100.00;102999.75;5226757;28;20366;-75
2023/02/28 04:09:12;;;;;;;21.02;10.48;;;;;;;-2.78;100.00;102991.91;5227241;28;20073;-75
2023/02/28 04:11:45;;;;;;;34.75;10.90;;;;;;;-2.82;100.00;102987.59;5226842;28;20028;-75
2023/02/28 04:14:16;;;;;;;23.92;11.02;;;;;;;-2.84;100.00;102986.78;5226747;28;20478;-75
2023/02/28 04:16:47;;;;;;;28.38;11.57;;;;;;;-2.84;100.00;102986.78;5226094;28;20043;-75
2023/02/28 04:19:18;;;;;;;25.40;10.88;;;;;;;-2.84;100.00;102997.28;5227002;28;20025;-75
2023/02/28 04:21:51;;;;;;;27.42;12.45;;;;;;;-2.84;100.00;102996.44;5226529;28;20039;-75
2023/02/28 04:24:25;;;;;;;29.13;11.68;;;;;;;-2.81;100.00;102994.63;5226773;28;20124;-74
2023/02/28 04:26:57;;;;;;;30.80;12.65;;;;;;;-2.79;100.00;102995.44;5225702;28;20117;-75
2023/02/28 04:29:30;;;;;;;23.70;11.48;;;;;;;-2.74;100.00;103001.47;5226543;28;20047;-75
2023/02/28 04:32:01;;;;;;;28.48;11.45;;;;;;;-2.65;100.00;103008.34;5226978;28;20184;-75
2023/02/28 04:34:32;;;;;;;23.38;11.05;;;;;;;-2.54;100.00;103010.75;5226331;28;20029;-75
2023/02/28 04:37:04;;;;;;;28.65;11.82;;;;;;;-2.36;100.00;103019.16;5226151;28;20397;-75
2023/02/28 04:39:36;;;;;;;24.80;10.48;;;;;;;-2.26;100.00;103016.31;5225963;28;20029;-75
2023/02/28 04:42:07;;;;;;;27.77;11.50;;;;;;;-2.20;100.00;103018.84;5226739;28;20032;-75
2023/02/28 04:44:37;;;;;;;31.77;11.35;;;;;;;-2.14;100.00;103016.97;5212704;28;20022;-75
2023/02/28 04:47:08;;;;;;;28.08;11.23;;;;;;;-2.06;100.00;103016.78;5226047;28;20023;-75
2023/02/28 04:49:39;;;;;;;26.15;10.95;;;;;;;-2.00;100.00;103014.03;5225877;28;20033;-74
2023/02/28 04:52:10;;;;;;;28.25;10.60;;;;;;;-1.92;100.00;103012.09;5228247;28;20421;-75
2023/02/28 04:54:40;;;;;;;24.70;11.85;;;;;;;-1.85;100.00;103011.09;5211472;28;20037;-75
2023/02/28 04:57:11;;;;;;;26.77;11.35;;;;;;;-1.80;100.00;103010.97;5227461;28;20021;-75
2023/02/28 04:59:41;;;;;;;30.35;11.23;;;;;;;-1.75;100.00;103006.47;5226614;28;20029;-75
2023/02/28 05:02:12;;;;;;;26.17;11.18;;;;;;;-1.70;100.00;103006.38;5226671;28;20035;-75
2023/02/28 05:04:42;;;;;;;23.67;10.80;;;;;;;-1.66;100.00;103008.03;5217348;28;20033;-75
2023/02/28 05:07:13;;;;;;;22.88;10.88;;;;;;;-1.60;100.00;103007.91;5225785;28;20024;-74
2023/02/28 05:09:43;;;;;;;30.13;11.20;;;;;;;-1.56;100.00;103006.91;5226459;28;20481;-75
2023/02/28 05:12:14;;;;;;;23.25;11.35;;;;;;;-1.49;100.00;103011.16;5225865;28;20032;-75
2023/02/28 05:14:44;;;;;;;23.80;10.90;;;;;;;-1.45;100.00;103004.91;5225714;28;20054;-75
2023/02/28 05:17:15;;;;;;;24.35;10.93;;;;;;;-1.40;100.00;103021.47;5225294;28;20027;-75
2023/02/28 05:19:45;;;;;;;21.33;10.10;;;;;;;-1.34;100.00;103010.78;5225934;28;20433;-75
2023/02/28 05:22:16;;;;;;;29.88;11.30;;;;;;;-1.31;100.00;103012.47;5208089;28;20489;-75
2023/02/28 05:24:47;;;;;;;23.80;10.15;;;;;;;-1.29;100.00;103015.06;5207925;28;20389;-75
2023/02/28 05:27:17;;;;;;;21.17;9.93;;;;;;;-1.30;100.00;103008.94;5225068;28;20159;-75
2023/02/28 05:29:48;;;;;;;24.38;11.25;;;;;;;-1.28;100.00;103015.03;5225418;28;20103;-75
2023/02/28 05:32:18;;;;;;;32.78;11.30;;;;;;;-1.27;100.00;103010.63;5225563;28;20028;-75
2023/02/28 05:34:48;;;;;;;22.67;10.77;;;;;;;-1.27;100.00;103016.75;5225092;28;20539;-75
2023/02/28 05:37:19;;;;;;;20.15;10.20;;;;;;;-1.25;100.00;103014.09;5207423;28;20435;-75
2023/02/28 05:39:49;;;;;;;22.30;9.98;;;;;;;-1.22;100.00;103008.75;5224772;28;20576;-75
2023/02/28 05:42:20;;;;;;;27.02;10.82;;;;;;;-1.19;100.00;103016.59;5225492;28;20029;-75
2023/02/28 05:44:51;;;;;;;23.38;10.75;;;;;;;-1.18;100.00;103021.81;5207782;28;20059;-75
2023/02/28 05:47:22;;;;;;;20.02;10.68;;;;;;;-1.15;100.00;103031.41;5206952;28;20029;-75
2023/02/28 05:49:52;;;;;;;23.67;11.55;;;;;;;-1.12;100.00;103026.91;5224991;28;20603;-74
2023/02/28 05:52:23;;;;;;;22.35;10.90;;;;;;;-1.10;100.00;103025.13;5224918;28;20029;-75
2023/02/28 05:54:53;;;;;;;23.52;11.88;;;;;;;-1.10;100.00;103024.25;5225087;28;20029;-75
2023/02/28 05:57:24;;;;;;;26.30;11.05;;;;;;;-1.10;100.00;103027.75;5206829;28;20463;-75
2023/02/28 05:59:54;;;;;;;26.98;11.27;;;;;;;-1.09;100.00;103026.84;5224355;28;20025;-75
2023/02/28 06:02:25;;;;;;;25.60;10.70;;;;;;;-1.07;100.00;103030.31;5224893;28;20500;-75
2023/02/28 06:04:55;;;;;;;25.52;10.43;;;;;;;-1.06;100.00;103029.41;5206549;28;20032;-75
2023/02/28 06:07:26;;;;;;;22.90;9.90;;;;;;;-1.03;100.00;103027.59;5224537;28;20106;-75
2023/02/28 06:09:56;;;;;;;21.30;9.55;;;;;;;-1.03;100.00;103036.38;5224006;28;20456;-75
2023/02/28 06:12:27;;;;;;;25.40;10.70;;;;;;;-1.02;100.00;103029.31;5224684;28;20493;-75
2023/02/28 06:14:57;;;;;;;20.80;10.40;;;;;;;-1.01;100.00;103037.19;5224751;28;20082;-75
2023/02/28 06:17:28;;;;;;;25.05;10.07;;;;;;;-1.00;100.00;103025.78;5223523;28;20022;-75
2023/02/28 06:19:58;;;;;;;19.10;10.85;;;;;;;-0.98;100.00;103039.75;5224522;28;20017;-75
2023/02/28 06:22:29;;;;;;;23.85;10.20;;;;;;;-0.98;100.00;103039.75;5224410;28;20717;-74
2023/02/28 06:24:59;;;;;;;26.75;10.43;;;;;;;-0.97;100.00;103035.34;5206454;28;20405;-75
2023/02/28 06:27:31;;;;;;;23.85;10.75;;;;;;;-0.97;100.00;103030.94;5224226;28;20051;-75
2023/02/28 06:30:01;;;;;;;19.30;9.27;;;;;;;-0.95;100.00;103041.47;5205878;28;20029;-75
2023/02/28 06:32:33;;;;;;;23.02;10.77;;;;;;;-0.94;100.00;103037.91;5224492;28;20052;-75
2023/02/28 06:35:07;;;;;;;23.63;10.10;;;;;;;-0.93;100.00;103044.91;5223903;28;20111;-75
2023/02/28 06:37:37;;;;;;;19.05;9.65;;;;;;;-0.91;100.00;103040.47;5223981;28;20029;-75
2023/02/28 06:40:10;;;;;;;21.55;10.32;;;;;;;-0.88;100.00;103043.03;5223457;28;20405;-75
2023/02/28 06:42:41;;;;;;;20.10;9.43;;;;;;;-0.81;100.00;103049.84;5179175;28;20458;-75
2023/02/28 06:45:12;;;;;;;20.30;9.63;;;;;;;-0.79;100.00;103038.38;5210879;28;20075;-75
2023/02/28 06:47:45;;;;;;;21.98;9.77;;;;;;;-0.73;100.00;103045.25;5205827;28;20032;-75
2023/02/28 06:50:19;;;;;;;17.95;9.88;;;;;;;-0.65;100.00;103043.31;5223790;28;20021;-74
2023/02/28 06:52:53;;;;;;;26.35;10.45;;;;;;;-0.56;100.00;103055.34;5224036;28;20392;-75
2023/02/28 06:55:24;;;;;;;18.98;9.88;;;;;;;-0.45;100.00;103050.69;5223888;28;20104;-75
2023/02/28 06:57:55;;;;;;;24.92;10.05;;;;;;;-0.33;100.00;103052.13;5223523;28;20474;-75
2023/02/28 07:00:26;;;;;;;22.30;10.30;;;;;;;-0.20;100.00;103057.91;5223691;28;20024;-75
2023/02/28 07:02:56;;;;;;;24.70;10.98;;;;;;;-0.05;100.00;103062.75;5223726;28;20066;-75
2023/02/28 07:05:27;;;;;;;19.23;9.88;;;;;;;0.06;100.00;103057.19;5223150;28;20072;-75
2023/02/28 07:07:57;;;;;;;19.55;10.02;;;;;;;0.18;100.00;103065.59;5223572;28;20132;-75
2023/02/28 07:10:30;;;;;;;19.90;10.30;;;;;;;0.32;100.00;103064.31;5223612;28;20226;-75
2023/02/28 07:13:01;;;;;;;16.90;9.25;;;;;;;0.36;100.00;103065.97;5224911;28;20050;-75
2023/02/28 07:15:31;;;;;;;17.65;9.95;;;;;;;0.37;100.00;103065.91;5223743;28;20025;-75
2023/02/28 07:18:03;;;;;;;17.65;8.50;;;;;;;0.42;100.00;103060.50;5223873;28;20035;-75
2023/02/28 07:20:36;;;;;;;18.35;8.30;;;;;;;0.64;100.00;103060.69;5225043;28;20036;-75
2023/02/28 07:23:07;;;;;;;18.65;9.32;;;;;;;1.05;100.00;103062.00;5228125;28;20063;-75
2023/02/28 07:25:37;;;;;;;18.52;8.38;;;;;;;1.58;100.00;103069.03;5227755;28;20457;-75
2023/02/28 07:28:08;;;;;;;18.58;8.23;;;;;;;2.14;100.00;103055.50;5227170;28;20493;-75
2023/02/28 07:30:39;;;;;;;15.52;7.78;;;;;;;2.73;100.00;103053.19;5227777;28;20044;-75
2023/02/28 07:33:10;;;;;;;14.82;7.78;;;;;;;2.92;100.00;103055.09;5227751;28;20059;-75
2023/02/28 07:35:41;;;;;;;12.48;7.72;;;;;;;2.95;100.00;103063.75;5227665;28;20424;-76
2023/02/28 07:38:13;;;;;;;16.25;7.70;;;;;;;2.92;100.00;103063.91;5227212;28;20021;-76
2023/02/28 07:40:44;;;;;;;15.90;7.97;;;;;;;3.02;100.00;103062.59;5227378;28;20422;-76
2023/02/28 07:43:14;;;;;;;14.40;7.40;;;;;;;3.28;100.00;103063.28;5227551;28;20063;-76
2023/02/28 07:45:45;;;;;;;12.48;7.82;;;;;;;3.48;100.00;103070.41;5226168;28;20151;-76
2023/02/28 07:48:15;;;;;;;13.35;7.63;;;;;;;3.61;100.00;103063.63;5227163;28;20083;-76
2023/02/28 07:50:55;;;;;;;11.55;7.38;;;;;;;3.87;100.00;103068.66;5227113;28;20469;-76
2023/02/28 07:53:26;;;;;;;23.40;7.35;;;;;;;4.33;100.00;103061.25;5214996;28;20159;-76
2023/02/28 07:55:59;;;;;;;12.25;6.55;;;;;;;4.64;100.00;103067.75;5226762;28;20071;-76
2023/02/28 07:58:30;;;;;;;14.90;6.55;;;;;;;4.84;100.00;103067.66;5226810;28;20482;-76
2023/02/28 08:01:19;;;;;;;15.25;6.25;;;;;;;5.27;100.00;103069.97;5204535;28;20028;-76
2023/02/28 08:03:50;;;;;;;15.57;6.10;;;;;;;5.25;100.00;103058.53;5209947;28;20056;-76
2023/02/28 08:06:22;;;;;;;13.10;5.90;;;;;;;5.51;100.00;103067.84;5225918;28;20090;-76
2023/02/28 08:08:53;;;;;;;10.23;5.25;;;;;;;5.76;100.00;103070.97;5208457;28;20029;-76
2023/02/28 08:11:24;;;;;;;17.77;6.53;;;;;;;5.56;100.00;103066.66;5207297;28;20036;-76
2023/02/28 08:13:54;;;;;;;11.68;5.88;;;;;;;5.61;100.00;103064.63;5225510;28;20033;-76
2023/02/28 08:16:25;;;;;;;13.40;6.35;;;;;;;5.69;100.00;103069.56;5225331;28;20071;-74
2023/02/28 08:18:55;;;;;;;9.63;5.50;;;;;;;5.55;100.00;103064.97;5225664;28;20401;-74
2023/02/28 08:21:26;;;;;;;10.75;5.85;;;;;;;5.69;100.00;103064.25;5225272;28;20056;-74
2023/02/28 08:23:57;;;;;;;10.93;4.80;;;;;;;5.69;100.00;103072.22;5208160;28;20032;-74
2023/02/28 08:26:27;;;;;;;7.85;4.45;;;;;;;5.56;100.00;103066.66;5225026;28;20498;-74
2023/02/28 08:28:58;;;;;;;9.20;3.70;;;;;;;5.33;100.00;103064.34;5225587;28;20045;-74
2023/02/28 08:31:28;;;;;;;7.32;3.80;;;;;;;5.15;100.00;103067.00;5225156;28;20028;-74
2023/02/28 08:34:05;;;;;;;8.05;4.00;;;;;;;4.93;100.00;103063.69;5225260;28;20036;-74
2023/02/28 08:36:44;;;;;;;10.25;4.40;;;;;;;5.01;100.00;103066.81;5225513;28;20020;-74
2023/02/28 08:39:15;;;;;;;8.50;3.67;;;;;;;4.93;100.00;103075.19;5207787;28;20065;-74
2023/02/28 08:41:45;;;;;;;8.77;3.92;;;;;;;4.85;100.00;103071.16;5225015;28;20441;-74
2023/02/28 08:44:16;;;;;;;9.55;4.10;;;;;;;4.79;100.00;103069.66;5212206;28;20029;-76
2023/02/28 08:46:46;;;;;;;7.45;3.67;;;;;;;4.82;100.00;103063.31;5224268;28;20358;-76
2023/02/28 08:49:17;;;;;;;6.85;3.55;;;;;;;5.07;100.00;103065.63;5206796;28;20033;-76
2023/02/28 08:51:48;;;;;;;6.43;3.75;;;;;;;5.38;100.00;103071.16;5206908;28;20035;-76
2023/02/28 08:54:19;;;;;;;6.78;3.67;;;;;;;5.64;100.00;103074.28;5224894;28;20025;-76
2023/02/28 08:56:49;;;;;;;12.20;4.35;;;;;;;5.96;100.00;103070.78;5224703;28;20027;-76
2023/02/28 08:59:20;;;;;;;9.88;3.78;;;;;;;5.86;100.00;103074.00;5224450;28;20025;-76
2023/02/28 09:01:50;;;;;;;9.63;3.10;;;;;;;5.79;100.00;103078.81;5206176;28;20455;-76
2023/02/28 09:04:22;;;;;;;5.97;3.28;;;;;;;5.66;100.00;103075.91;5215994;28;20404;-76
2023/02/28 09:06:52;;;;;;;6.57;3.38;;;;;;;5.70;100.00;103076.63;5224306;28;20422;-75
2023/02/28 09:09:22;;;;;;;6.68;3.33;;;;;;;5.44;100.00;103072.66;5224340;28;20116;-76
2023/02/28 09:11:56;;;;;;;7.28;3.30;;;;;;;5.69;100.00;103072.22;5206556;28;20108;-76
2023/02/28 09:14:26;;;;;;;6.18;3.03;;;;;;;5.83;100.00;103069.72;5210962;28;20509;-76
2023/02/28 09:16:57;;;;;;;5.97;3.53;;;;;;;6.45;100.00;103067.25;5206078;28;20013;-76
2023/02/28 09:19:28;;;;;;;9.70;3.42;;;;;;;6.70;97.03;103064.09;5223907;28;20032;-76
2023/02/28 09:21:58;;;;;;;5.25;2.80;;;;;;;7.08;94.50;103063.66;5218645;28;20025;-76
2023/02/28 09:24:31;;;;;;;5.50;2.92;;;;;;;7.24;83.89;103059.16;5224302;28;20031;-76
2023/02/28 09:27:01;;;;;;;5.38;2.75;;;;;;;7.38;81.04;103067.22;5223483;28;20033;-76
2023/02/28 09:29:33;;;;;;;4.82;2.50;;;;;;;7.52;79.66;103056.56;5223476;28;20025;-76
2023/02/28 09:32:05;;;;;;;9.15;3.38;;;;;;;7.65;81.72;103063.84;5223767;28;20031;-76
2023/02/28 09:34:36;;;;;;;4.57;2.45;;;;;;;7.22;74.02;103058.38;5224196;28;20021;-76
2023/02/28 09:37:07;;;;;;;6.50;2.20;;;;;;;7.37;71.84;103061.97;5223381;28;20021;-76
2023/02/28 09:39:38;;;;;;;3.03;2.10;;;;;;;7.17;70.21;103072.00;5223091;28;20037;-76
2023/02/28 09:42:21;;;;;;;3.00;2.03;;;;;;;6.99;66.93;103073.09;5223799;28;20504;-76
2023/02/28 09:44:52;;;;;;;6.32;2.65;;;;;;;6.91;65.57;103062.00;5204847;28;20452;-76
2023/02/28 09:47:44;;;;;;;8.25;2.50;;;;;;;7.03;64.63;103065.75;5223493;28;20024;-76
2023/02/28 09:50:21;;;;;;;3.85;2.80;;;;;;;7.00;67.16;103072.13;5210638;28;20044;-76
2023/02/28 09:52:53;;;;;;;4.18;2.30;;;;;;;6.71;63.88;103065.78;5223500;28;20029;-76
2023/02/28 09:55:47;;;;;;;4.20;2.47;;;;;;;6.42;64.52;103065.63;5223420;28;20370;-76
2023/02/28 09:58:26;;;;;;;6.32;2.42;;;;;;;6.39;64.23;103051.63;5210665;28;20103;-76
2023/02/28 10:01:03;;;;;;;4.10;2.30;;;;;;;6.51;65.38;103060.72;5222969;28;20056;-76
2023/02/28 10:04:08;;;;;;;3.78;2.38;;;;;;;6.62;67.96;103063.66;5216607;28;20029;-76
2023/02/28 10:06:46;;;;;;;2.90;1.67;;;;;;;6.60;62.51;103065.56;5212459;28;20112;-76
2023/02/28 10:09:35;;;;;;;5.18;2.20;;;;;;;6.66;61.88;103054.53;5222862;28;20032;-76
2023/02/28 10:12:09;;;;;;;2.30;1.83;;;;;;;6.65;59.71;103056.34;5204958;28;20032;-76
2023/02/28 10:14:45;;;;;;;4.32;2.33;;;;;;;6.58;59.16;103054.13;5205525;28;20397;-76
2023/02/28 10:17:22;;;;;;;3.97;1.70;;;;;;;5.96;57.67;103048.63;5222458;28;20024;-75
2023/02/28 10:20:13;;;;;;;2.35;1.88;;;;;;;5.90;62.42;103043.59;5223015;28;20493;-76
2023/02/28 10:22:57;;;;;;;3.95;2.22;;;;;;;5.81;60.11;103047.59;5211024;28;20024;-76
2023/02/28 10:25:29;;;;;;;4.95;2.40;;;;;;;5.79;57.06;103044.16;5222689;28;20029;-76
2023/02/28 10:28:10;;;;;;;2.92;2.15;;;;;;;6.16;62.37;103048.41;5223021;28;20021;-76
2023/02/28 10:30:56;;;;;;;4.70;2.58;;;;;;;6.18;60.86;103043.00;5223170;28;20056;-76
2023/02/28 10:33:30;;;;;;;5.88;2.30;;;;;;;6.03;59.63;103043.84;5211964;28;20078;-76
2023/02/28 10:36:02;;;;;;;4.25;2.10;;;;;;;5.77;62.83;103042.50;5225835;28;20504;-75
2023/02/28 10:38:36;;;;;;;4.28;1.88;;;;;;;5.55;59.83;103045.47;5224530;28;20028;-76
2023/02/28 10:41:10;;;;;;;3.65;2.40;;;;;;;5.68;63.24;103043.88;5222991;28;20094;-75
2023/02/28 10:43:42;;;;;;;4.30;2.40;;;;;;;5.32;58.96;103039.53;5223009;28;20020;-76
2023/02/28 10:46:25;;;;;;;3.63;1.88;;;;;;;5.29;62.10;103036.16;5204863;28;20082;-76
2023/02/28 10:49:18;;;;;;;3.50;2.33;;;;;;;5.38;63.33;103028.56;5222922;28;20042;-76
2023/02/28 10:51:53;;;;;;;4.65;2.17;;;;;;;5.46;63.11;103033.47;5209470;28;20017;-76
2023/02/28 10:54:40;;;;;;;4.82;2.00;;;;;;;5.73;60.37;103023.19;5222530;28;20636;-76
2023/02/28 10:57:30;;;;;;;5.82;2.13;;;;;;;5.63;58.78;103029.97;5222177;28;20032;-75
2023/02/28 11:00:21;;;;;;;5.07;2.10;;;;;;;5.81;59.45;103023.63;5193121;28;20052;-76
2023/02/28 11:02:52;;;;;;;2.97;2.22;;;;;;;5.62;57.46;103022.88;5203004;28;20114;-76
2023/02/28 11:05:38;;;;;;;3.58;2.00;;;;;;;5.69;57.26;103014.50;5215453;28;20425;-75
2023/02/28 11:08:14;;;;;;;4.20;2.03;;;;;;;5.60;57.81;103019.44;5223121;28;20056;-75
2023/02/28 11:10:47;;;;;;;4.85;2.28;;;;;;;5.47;57.73;103021.88;5222173;28;20043;-75
2023/02/28 11:13:20;;;;;;;3.92;2.30;;;;;;;5.56;59.09;103016.09;5222232;28;20025;-75
2023/02/28 11:15:56;;;;;;;4.82;1.98;;;;;;;5.69;60.41;103011.84;5222588;28;20028;-75
2023/02/28 11:18:29;;;;;;;;;;;;;;;5.84;61.49;103007.50;5222535;28;20378;-76
2023/02/28 11:21:02;;;;;;;4.15;2.50;;;;;;;6.11;61.37;103005.16;5222145;28;19947;-76
2023/02/28 11:23:36;;;;;;;3.22;1.88;;;;;;;6.11;59.49;102998.97;5204054;28;20037;-76
2023/02/28 11:26:09;;;;;;;3.60;2.20;;;;;;;5.79;62.15;103006.88;5222216;28;20393;-76
2023/02/28 11:28:41;;;;;;;6.43;2.40;;;;;;;5.82;58.89;103012.03;5222163;28;20029;-76
2023/02/28 11:31:13;;;;;;;5.47;2.15;;;;;;;5.93;58.25;102996.38;5204482;28;20029;-76
2023/02/28 11:33:49;;;;;;;4.93;2.00;;;;;;;5.93;58.72;102996.38;5222122;28;20770;-76
2023/02/28 11:36:24;;;;;;;4.03;2.10;;;;;;;6.23;60.23;102990.31;5222221;28;20031;-76
2023/02/28 11:39:01;;;;;;;5.65;2.35;;;;;;;6.25;56.86;102992.88;5222635;28;20048;-76
2023/02/28 11:41:57;;;;;;;2.53;1.58;;;;;;;6.05;53.97;102993.97;5204054;28;20055;-76
2023/02/28 11:44:46;;;;;;;4.03;2.28;;;;;;;6.03;55.09;102990.56;5221617;28;20156;-76
2023/02/28 11:47:36;;;;;;;4.25;1.90;;;;;;;6.05;54.63;102981.50;5221847;28;20029;-75
2023/02/28 11:50:25;;;;;;;3.67;1.80;;;;;;;6.00;55.48;102980.91;5221835;28;20052;-76